Time;durP1;ratioP1;P1;durP2;ratioP2;P2;SDS_P1;SDS_P2;PMS_P1;PMS_P2;Temp;Humidity;BMP_temperature;BMP_pressure;BME280_temperature;BME280_humidity;BME280_pressure;Samples;Min_cycle;Max_cycle;Signal;HPM_P1;HPM_P2
2023/09/08 00:01:14;;;;;;;8.13;4.43;;;;;;;;;;4955060;29;20047;-81
2023/09/08 00:03:47;;;;;;;8.88;4.82;;;;;;;;;;4954868;29;20042;-81
2023/09/08 00:06:17;;;;;;;8.30;4.55;;;;;;;;;;4955071;28;20043;-82
2023/09/08 00:08:50;;;;;;;10.00;5.82;;;;;;;;;;4923189;28;20054;-81
2023/09/08 00:11:21;;;;;;;12.60;5.07;;;;;;;;;;4973779;28;20033;-81
2023/09/08 00:13:52;;;;;;;11.88;5.25;;;;;;;;;;4969823;28;20044;-79
2023/09/08 00:16:22;;;;;;;11.25;4.30;;;;;;;;;;4965528;28;20043;-81
2023/09/08 00:18:55;;;;;;;15.32;6.15;;;;;;;;;;4955023;28;20513;-83
2023/09/08 00:21:28;;;;;;;12.35;5.55;;;;;;;;;;4957629;29;20047;-82
2023/09/08 00:24:00;;;;;;;10.02;5.15;;;;;;;;;;4940178;29;20058;-82
2023/09/08 00:26:31;;;;;;;9.68;4.82;;;;;;;;;;4976222;28;20477;-82
2023/09/08 00:29:01;;;;;;;9.82;4.50;;;;;;;;;;4976637;28;20050;-83
2023/09/08 00:31:34;;;;;;;13.93;4.43;;;;;;;;;;4940734;28;20046;-79
2023/09/08 00:34:06;;;;;;;8.38;4.28;;;;;;;;;;4958670;28;20057;-84
2023/09/08 00:36:39;;;;;;;16.98;5.18;;;;;;;;;;4975169;28;20039;-81
2023/09/08 00:39:10;;;;;;;9.65;4.65;;;;;;;;;;4959442;28;20038;-80
2023/09/08 00:41:42;;;;;;;9.05;3.90;;;;;;;;;;4960186;28;20038;-84
2023/09/08 00:44:13;;;;;;;10.02;4.13;;;;;;;;;;4924634;29;20514;-81
2023/09/08 00:46:44;;;;;;;8.48;4.07;;;;;;;;;;4941121;29;20043;-80
2023/09/08 00:49:16;;;;;;;10.23;4.50;;;;;;;;;;4939495;29;20047;-83
2023/09/08 00:51:49;;;;;;;8.95;4.78;;;;;;;;;;4957388;29;20386;-84
2023/09/08 00:54:21;;;;;;;11.82;4.85;;;;;;;;;;4957672;29;20050;-81
2023/09/08 00:56:59;;;;;;;10.05;4.22;;;;;;;;;;4939956;29;20054;-79
2023/09/08 00:59:35;;;;;;;11.90;4.65;;;;;;;;;;4957225;29;20039;-79
2023/09/08 01:02:07;;;;;;;11.73;4.82;;;;;;;;;;4939953;29;20109;-80
2023/09/08 01:04:40;;;;;;;11.55;5.15;;;;;;;;;;4924292;29;20078;-83
2023/09/08 01:07:11;;;;;;;8.55;3.97;;;;;;;;;;4957167;29;20047;-80
2023/09/08 01:09:46;;;;;;;12.65;5.47;;;;;;;;;;4957520;28;20398;-81
2023/09/08 01:12:20;;;;;;;10.82;4.95;;;;;;;;;;4958243;28;20054;-81
2023/09/08 01:14:50;;;;;;;13.80;5.30;;;;;;;;;;4957907;28;20053;-80
2023/09/08 01:17:22;;;;;;;11.55;4.60;;;;;;;;;;4943445;28;20057;-83
2023/09/08 01:19:56;;;;;;;12.55;4.60;;;;;;;;;;4959190;28;20046;-80
2023/09/08 01:22:44;;;;;;;9.25;4.60;;;;;;;;;;4976144;28;20468;-80
2023/09/08 01:25:20;;;;;;;10.10;4.82;;;;;;;;;;4958072;28;20393;-82
2023/09/08 01:27:54;;;;;;;11.60;4.53;;;;;;;;;;4958885;28;20047;-82
2023/09/08 01:30:32;;;;;;;9.35;4.40;;;;;;;;;;4955665;28;20039;-80
2023/09/08 01:33:30;;;;;;;9.90;4.65;;;;;;;;;;4957900;28;20039;-79
2023/09/08 01:36:03;;;;;;;14.10;5.55;;;;;;;;;;4956508;28;20062;-82
2023/09/08 01:38:33;;;;;;;8.98;5.05;;;;;;;;;;4942041;28;20469;-80
2023/09/08 01:44:07;;;;;;;9.75;4.70;;;;;;;;;;4939188;29;20059;-82
2023/09/08 01:46:40;;;;;;;12.13;5.20;;;;;;;;;;4956700;29;20039;-81
2023/09/08 01:49:15;;;;;;;14.20;5.18;;;;;;;;;;4956852;29;20046;-81
2023/09/08 01:51:48;;;;;;;9.02;4.75;;;;;;;;;;4938634;29;20043;-78
2023/09/08 01:54:22;;;;;;;11.90;5.03;;;;;;;;;;4955988;29;20047;-80
2023/09/08 01:56:56;;;;;;;11.32;5.40;;;;;;;;;;4956671;29;20395;-80
2023/09/08 01:59:29;;;;;;;9.73;4.68;;;;;;;;;;4950134;28;20054;-80
2023/09/08 02:01:59;;;;;;;11.27;5.32;;;;;;;;;;4958277;28;20046;-80
2023/09/08 02:04:32;;;;;;;13.10;5.25;;;;;;;;;;4975139;28;20042;-81
2023/09/08 02:07:05;;;;;;;12.15;5.55;;;;;;;;;;4958137;28;20398;-81
2023/09/08 02:09:38;;;;;;;10.07;5.93;;;;;;;;;;4957494;28;20047;-81
2023/09/08 02:12:09;;;;;;;13.88;5.30;;;;;;;;;;4957831;28;20047;-80
2023/09/08 02:14:40;;;;;;;11.57;5.45;;;;;;;;;;4942111;28;20378;-82
2023/09/08 02:17:15;;;;;;;10.32;6.22;;;;;;;;;;4956916;28;20046;-81
2023/09/08 02:19:46;;;;;;;13.45;6.43;;;;;;;;;;4958261;28;20418;-81
2023/09/08 02:22:16;;;;;;;12.43;5.88;;;;;;;;;;4958484;28;20043;-82
2023/09/08 02:24:53;;;;;;;10.70;5.93;;;;;;;;;;4959536;28;20390;-80
2023/09/08 02:27:29;;;;;;;11.50;5.03;;;;;;;;;;4942141;28;20050;-81
2023/09/08 02:29:59;;;;;;;16.27;6.30;;;;;;;;;;4958155;28;20046;-81
2023/09/08 02:32:33;;;;;;;12.68;6.80;;;;;;;;;;4939685;29;20058;-79
2023/09/08 02:35:08;;;;;;;13.10;6.38;;;;;;;;;;4938416;29;20047;-84
2023/09/08 02:37:40;;;;;;;11.65;6.38;;;;;;;;;;4937906;29;20047;-81
2023/09/08 02:40:11;;;;;;;19.48;8.25;;;;;;;;;;4922578;29;20047;-80
2023/09/08 02:42:44;;;;;;;14.63;7.07;;;;;;;;;;4922992;29;20054;-80
2023/09/08 02:45:15;;;;;;;12.40;5.38;;;;;;;;;;4937614;29;20040;-80
2023/09/08 02:47:48;;;;;;;;;;;;;;;;;;4955969;29;20143;-80
2023/09/08 02:50:18;;;;;;;8.70;4.78;;;;;;;;;;4937454;29;19925;-83
2023/09/08 02:56:13;;;;;;;17.00;8.57;;;;;;;;;;4958166;28;20043;-83
2023/09/08 02:58:47;;;;;;;24.05;9.50;;;;;;;;;;4961086;28;20043;-80
2023/09/08 03:01:20;;;;;;;17.90;9.75;;;;;;;;;;4974548;28;20043;-82
2023/09/08 03:03:53;;;;;;;17.92;9.65;;;;;;;;;;4957550;28;20054;-80
2023/09/08 03:06:25;;;;;;;19.73;10.65;;;;;;;;;;4941028;28;20066;-82
2023/09/08 03:09:02;;;;;;;21.98;11.65;;;;;;;;;;4956184;28;20083;-80
2023/09/08 03:11:32;;;;;;;21.77;11.32;;;;;;;;;;4956305;28;20536;-80
2023/09/08 03:14:03;;;;;;;16.08;8.73;;;;;;;;;;4957986;28;20482;-79
2023/09/08 03:16:36;;;;;;;19.77;9.65;;;;;;;;;;4973997;28;20043;-80
2023/09/08 03:19:09;;;;;;;19.00;8.23;;;;;;;;;;4974436;28;20039;-79
2023/09/08 03:21:39;;;;;;;19.58;10.52;;;;;;;;;;4956321;28;20119;-78
2023/09/08 03:24:09;;;;;;;16.05;9.15;;;;;;;;;;4957496;28;20051;-81
2023/09/08 03:26:41;;;;;;;16.58;8.82;;;;;;;;;;4941142;28;20047;-80
2023/09/08 03:29:14;;;;;;;18.15;8.82;;;;;;;;;;4974350;28;20038;-80
2023/09/08 03:31:47;;;;;;;18.40;8.73;;;;;;;;;;4959312;28;20043;-83
2023/09/08 03:34:20;;;;;;;17.55;8.40;;;;;;;;;;4957314;28;20061;-80
2023/09/08 03:36:55;;;;;;;22.23;8.90;;;;;;;;;;4975345;28;20046;-82
2023/09/08 03:39:28;;;;;;;20.65;8.60;;;;;;;;;;4956559;28;20038;-80
2023/09/08 03:41:58;;;;;;;18.92;9.32;;;;;;;;;;4976905;28;20061;-81
2023/09/08 03:44:31;;;;;;;17.38;8.48;;;;;;;;;;4981842;28;20057;-81
2023/09/08 03:47:02;;;;;;;19.40;9.25;;;;;;;;;;4998768;28;20031;-81
2023/09/08 03:49:35;;;;;;;20.88;8.70;;;;;;;;;;4980984;28;20047;-80
2023/09/08 03:52:06;;;;;;;15.20;8.10;;;;;;;;;;4980499;28;20038;-82
2023/09/08 03:54:37;;;;;;;21.60;8.05;;;;;;;;;;4980598;28;20106;-81
2023/09/08 03:57:08;;;;;;;16.52;8.00;;;;;;;;;;4982307;28;20033;-81
2023/09/08 03:59:42;;;;;;;14.38;7.97;;;;;;;;;;4998518;28;20027;-81
2023/09/08 04:02:12;;;;;;;19.00;8.63;;;;;;;;;;4967953;28;20038;-82
2023/09/08 04:04:43;;;;;;;16.55;8.85;;;;;;;;;;4956302;28;20508;-80
2023/09/08 04:07:13;;;;;;;16.17;8.05;;;;;;;;;;4957951;28;20051;-83
2023/09/08 04:09:44;;;;;;;17.75;8.32;;;;;;;;;;4953362;29;20368;-81
2023/09/08 04:12:14;;;;;;;18.98;9.27;;;;;;;;;;4955448;29;20459;-81
2023/09/08 04:14:45;;;;;;;19.38;8.88;;;;;;;;;;4955431;29;20463;-84
2023/09/08 04:17:15;;;;;;;15.50;8.73;;;;;;;;;;4954065;29;20478;-80
2023/09/08 04:22:42;;;;;;;14.32;8.18;;;;;;;;;;4937454;29;20047;-83
2023/09/08 04:25:13;;;;;;;19.13;8.77;;;;;;;;;;4953179;29;20067;-81
2023/09/08 04:27:44;;;;;;;19.73;9.07;;;;;;;;;;4955023;29;20036;-80
2023/09/08 04:30:18;;;;;;;17.38;9.95;;;;;;;;;;4937163;29;20050;-79
2023/09/08 04:32:49;;;;;;;17.80;10.15;;;;;;;;;;4955135;29;20063;-81
2023/09/08 04:35:20;;;;;;;22.20;9.77;;;;;;;;;;4953226;29;20062;-81
2023/09/08 04:37:50;;;;;;;17.17;9.55;;;;;;;;;;4953403;29;20047;-81
2023/09/08 04:40:22;;;;;;;16.88;9.73;;;;;;;;;;4955151;29;20054;-84
2023/09/08 04:42:54;;;;;;;23.60;10.13;;;;;;;;;;4937823;29;20047;-80
2023/09/08 04:45:27;;;;;;;14.77;8.43;;;;;;;;;;4953022;29;20434;-80
2023/09/08 04:47:57;;;;;;;18.60;8.93;;;;;;;;;;4952857;29;20480;-81
2023/09/08 04:50:31;;;;;;;13.88;7.15;;;;;;;;;;4953227;29;20058;-81
2023/09/08 04:53:01;;;;;;;13.43;7.15;;;;;;;;;;4936846;29;20062;-84
2023/09/08 04:55:32;;;;;;;;;;;;;;;;;;4938232;29;20051;-82
2023/09/08 04:58:04;;;;;;;8.82;5.03;;;;;;;;;;4953642;29;20265;-81
2023/09/08 05:00:41;;;;;;;11.38;5.45;;;;;;;;;;4952679;29;20051;-82
2023/09/08 05:03:14;;;;;;;8.95;4.93;;;;;;;;;;4937206;29;20505;-81
2023/09/08 05:05:45;;;;;;;8.98;2.83;;;;;;;;;;4957942;28;20047;-79
2023/09/08 05:08:16;;;;;;;6.55;2.83;;;;;;;;;;4956460;28;20070;-81
2023/09/08 05:10:47;;;;;;;4.68;2.05;;;;;;;;;;4959589;28;20058;-80
2023/09/08 05:13:19;;;;;;;3.05;1.30;;;;;;;;;;4959863;28;20062;-80
2023/09/08 05:16:10;;;;;;;3.75;1.33;;;;;;;;;;4959132;28;20050;-80
2023/09/08 05:18:49;;;;;;;3.03;1.15;;;;;;;;;;4959839;28;20047;-81
2023/09/08 05:21:24;;;;;;;4.65;1.20;;;;;;;;;;4959328;28;20058;-81
2023/09/08 05:23:58;;;;;;;2.80;1.17;;;;;;;;;;4959426;28;20049;-80
2023/09/08 05:26:32;;;;;;;4.70;1.30;;;;;;;;;;4958937;28;20050;-79
2023/09/08 05:29:02;;;;;;;3.08;0.95;;;;;;;;;;4944422;28;20061;-80
2023/09/08 05:31:34;;;;;;;2.03;0.98;;;;;;;;;;4959670;28;20047;-80
2023/09/08 05:34:06;;;;;;;3.30;1.00;;;;;;;;;;4959003;28;20050;-81
2023/09/08 05:36:40;;;;;;;2.17;0.60;;;;;;;;;;4959235;28;20054;-84
2023/09/08 05:39:10;;;;;;;2.58;1.05;;;;;;;;;;4977553;28;20051;-84
2023/09/08 05:41:41;;;;;;;2.22;0.88;;;;;;;;;;4959270;28;20057;-81
2023/09/08 05:44:13;;;;;;;3.28;0.95;;;;;;;;;;4959100;28;20046;-84
2023/09/08 05:46:46;;;;;;;1.95;0.93;;;;;;;;;;4958790;28;20070;-81
2023/09/08 05:49:17;;;;;;;2.78;0.93;;;;;;;;;;4943067;28;20054;-82
2023/09/08 05:51:49;;;;;;;6.47;1.33;;;;;;;;;;4943532;28;20057;-83
2023/09/08 05:54:24;;;;;;;3.88;0.82;;;;;;;;;;4958451;28;20062;-85
2023/09/08 05:56:55;;;;;;;3.20;0.90;;;;;;;;;;4958316;28;20382;-84
2023/09/08 05:59:26;;;;;;;6.45;1.35;;;;;;;;;;4958754;28;20505;-84
2023/09/08 06:01:56;;;;;;;1.98;0.93;;;;;;;;;;4952136;28;20043;-85
2023/09/08 06:04:32;;;;;;;10.10;1.20;;;;;;;;;;4958129;28;20513;-79
2023/09/08 06:07:08;;;;;;;3.25;1.13;;;;;;;;;;4955902;28;20058;-83
2023/09/08 06:09:38;;;;;;;2.85;1.15;;;;;;;;;;4973469;28;20090;-83
2023/09/08 06:12:11;;;;;;;5.35;1.42;;;;;;;;;;4956995;28;20053;-84
2023/09/08 06:14:41;;;;;;;3.78;1.08;;;;;;;;;;4938329;29;20043;-88
2023/09/08 06:17:13;;;;;;;;;;;;;;;;;;4939987;29;20054;-82
2023/09/08 06:19:47;;;;;;;5.35;1.25;;;;;;;;;;4957770;29;19926;-83
2023/09/08 06:22:19;;;;;;;5.53;1.05;;;;;;;;;;4957308;29;20035;-85
2023/09/08 06:24:54;;;;;;;1.48;0.50;;;;;;;;;;4939300;29;20473;-83
2023/09/08 06:27:31;;;;;;;3.28;0.93;;;;;;;;;;4940050;29;20051;-84
2023/09/08 06:30:02;;;;;;;1.73;0.55;;;;;;;;;;4939853;29;20051;-84
2023/09/08 06:32:37;;;;;;;2.90;0.88;;;;;;;;;;4956953;29;20035;-83
2023/09/08 06:35:10;;;;;;;1.60;0.80;;;;;;;;;;4957063;29;20039;-82
2023/09/08 06:37:41;;;;;;;5.28;1.00;;;;;;;;;;4938754;29;20078;-79
2023/09/08 06:40:12;;;;;;;2.95;1.02;;;;;;;;;;4939011;29;20462;-80
2023/09/08 06:42:44;;;;;;;2.30;0.70;;;;;;;;;;4956519;29;20482;-82
2023/09/08 06:45:28;;;;;;;5.40;0.80;;;;;;;;;;4941268;29;20058;-84
2023/09/08 06:47:59;;;;;;;2.08;0.70;;;;;;;;;;4939085;29;20051;-86
2023/09/08 06:50:31;;;;;;;1.83;0.77;;;;;;;;;;4938550;29;20050;-84
2023/09/08 06:53:02;;;;;;;2.67;0.90;;;;;;;;;;4939263;29;20070;-86
2023/09/08 06:55:34;;;;;;;1.75;0.80;;;;;;;;;;4939303;29;20048;-83
2023/09/08 06:58:04;;;;;;;4.30;1.10;;;;;;;;;;4956444;29;20043;-82
2023/09/08 07:00:34;;;;;;;3.53;1.17;;;;;;;;;;4955853;29;20047;-82
2023/09/08 07:03:11;;;;;;;2.67;0.90;;;;;;;;;;4956466;29;20043;-83
2023/09/08 07:05:43;;;;;;;4.53;1.45;;;;;;;;;;4956128;29;20050;-82
2023/09/08 07:08:13;;;;;;;3.80;1.25;;;;;;;;;;4956067;29;20054;-82
2023/09/08 07:10:43;;;;;;;3.17;0.82;;;;;;;;;;4938398;29;20054;-83
2023/09/08 07:13:17;;;;;;;2.60;0.98;;;;;;;;;;4938571;29;20088;-81
2023/09/08 07:15:51;;;;;;;2.53;0.70;;;;;;;;;;4922947;29;20050;-83
2023/09/08 07:18:24;;;;;;;4.43;1.25;;;;;;;;;;4938580;29;20054;-83
2023/09/08 07:20:55;;;;;;;3.53;1.08;;;;;;;;;;4927305;29;20478;-82
2023/09/08 07:23:35;;;;;;;5.57;1.20;;;;;;;;;;4922778;29;20506;-82
2023/09/08 07:26:09;;;;;;;5.95;1.38;;;;;;;;;;4923544;29;20062;-81
2023/09/08 07:28:44;;;;;;;3.22;1.33;;;;;;;;;;4954920;28;20471;-81
2023/09/08 07:31:16;;;;;;;5.95;1.20;;;;;;;;;;4937831;29;20054;-83
2023/09/08 07:33:50;;;;;;;3.15;1.13;;;;;;;;;;4937893;29;20066;-82
2023/09/08 07:36:24;;;;;;;2.70;1.10;;;;;;;;;;4922537;29;20055;-82
2023/09/08 07:38:55;;;;;;;3.17;1.20;;;;;;;;;;4937698;29;20360;-84
2023/09/08 07:41:25;;;;;;;2.92;0.90;;;;;;;;;;4955853;29;20058;-81
2023/09/08 07:43:58;;;;;;;;;;;;;;;;;;4955866;29;20493;-80
2023/09/08 07:46:29;;;;;;;2.78;1.38;;;;;;;;;;4937860;29;19929;-81
2023/09/08 07:49:04;;;;;;;6.28;1.67;;;;;;;;;;4955706;29;20054;-81
2023/09/08 07:51:34;;;;;;;3.72;1.98;;;;;;;;;;4955073;29;20379;-82
2023/09/08 07:54:08;;;;;;;4.70;1.98;;;;;;;;;;4955474;29;20043;-82
2023/09/08 07:56:42;;;;;;;4.57;1.70;;;;;;;;;;4955291;29;20035;-84
2023/09/08 07:59:13;;;;;;;4.78;1.60;;;;;;;;;;4955313;29;20039;-82
2023/09/08 08:01:42;;;;;;;2.40;1.17;;;;;;;;;;4921812;29;20051;-85
2023/09/08 08:04:14;;;;;;;2.85;1.13;;;;;;;;;;4937503;29;20051;-83
2023/09/08 08:06:48;;;;;;;3.80;1.17;;;;;;;;;;4922127;29;20058;-81
2023/09/08 08:09:18;;;;;;;4.40;1.30;;;;;;;;;;4954631;28;20055;-81
2023/09/08 08:11:49;;;;;;;1.67;0.82;;;;;;;;;;4938833;29;20051;-83
2023/09/08 08:14:24;;;;;;;3.53;1.17;;;;;;;;;;4938776;29;20208;-81
2023/09/08 08:16:56;;;;;;;2.13;0.82;;;;;;;;;;4938150;29;20050;-82
2023/09/08 08:19:30;;;;;;;4.28;1.10;;;;;;;;;;4937255;29;20044;-82
2023/09/08 08:21:59;;;;;;;3.13;1.33;;;;;;;;;;4955454;29;20401;-82
2023/09/08 08:24:31;;;;;;;3.50;1.58;;;;;;;;;;4922323;29;20051;-82
2023/09/08 08:27:01;;;;;;;4.28;1.42;;;;;;;;;;4954983;29;20386;-82
2023/09/08 08:29:32;;;;;;;3.95;1.85;;;;;;;;;;4954938;29;20044;-83
2023/09/08 08:32:04;;;;;;;3.42;1.23;;;;;;;;;;4922611;29;20054;-82
2023/09/08 08:34:35;;;;;;;4.30;1.42;;;;;;;;;;4938476;29;20374;-83
2023/09/08 08:37:05;;;;;;;4.50;1.50;;;;;;;;;;4955206;28;20073;-83
2023/09/08 08:39:36;;;;;;;5.18;1.60;;;;;;;;;;4956920;28;20066;-81
2023/09/08 08:42:14;;;;;;;4.63;1.33;;;;;;;;;;4941766;29;20146;-82
2023/09/08 08:44:46;;;;;;;2.97;1.30;;;;;;;;;;4958844;29;20050;-83
2023/09/08 08:47:27;;;;;;;4.47;1.55;;;;;;;;;;4959009;29;20035;-82
2023/09/08 08:50:02;;;;;;;3.28;1.42;;;;;;;;;;4958538;29;20042;-82
2023/09/08 08:52:33;;;;;;;5.78;1.45;;;;;;;;;;4958321;29;20054;-83
2023/09/08 08:55:06;;;;;;;5.90;1.58;;;;;;;;;;4958600;29;20510;-82
2023/09/08 08:57:41;;;;;;;4.22;1.75;;;;;;;;;;4958830;28;20047;-82
2023/09/08 09:00:15;;;;;;;4.57;2.65;;;;;;;;;;4940940;29;20051;-82
2023/09/08 09:02:48;;;;;;;4.65;1.83;;;;;;;;;;4958141;28;20046;-84
2023/09/08 09:05:43;;;;;;;3.88;1.60;;;;;;;;;;4939937;29;20479;-82
2023/09/08 09:08:18;;;;;;;2.88;1.55;;;;;;;;;;4958720;29;20366;-84
2023/09/08 09:10:53;;;;;;;4.35;1.52;;;;;;;;;;4940760;29;20052;-81
2023/09/08 09:13:23;;;;;;;4.60;1.40;;;;;;;;;;4940709;29;20051;-82
2023/09/08 09:16:03;;;;;;;7.22;1.70;;;;;;;;;;4958253;29;20043;-82
2023/09/08 09:18:55;;;;;;;2.78;1.35;;;;;;;;;;4941154;29;20043;-81
2023/09/08 09:21:44;;;;;;;7.60;1.83;;;;;;;;;;4940695;29;20120;-81
2023/09/08 09:24:31;;;;;;;3.30;1.70;;;;;;;;;;4925635;29;20067;-81
2023/09/08 09:27:05;;;;;;;2.78;1.00;;;;;;;;;;4924749;29;20074;-82
2023/09/08 09:29:51;;;;;;;1.48;0.93;;;;;;;;;;4941082;28;20059;-81
2023/09/08 09:32:29;;;;;;;1.55;0.63;;;;;;;;;;4957971;28;20042;-83
2023/09/08 09:35:01;;;;;;;2.83;0.63;;;;;;;;;;4968818;28;20042;-82
2023/09/08 09:37:35;;;;;;;1.52;0.25;;;;;;;;;;4957651;28;20050;-83
2023/09/08 09:40:12;;;;;;;0.95;0.25;;;;;;;;;;4960473;28;20047;-83
2023/09/08 09:42:50;;;;;;;1.02;0.32;;;;;;;;;;4971038;28;20035;-82
2023/09/08 09:45:24;;;;;;;0.93;0.40;;;;;;;;;;4973366;28;20370;-80
2023/09/08 09:47:57;;;;;;;1.42;0.35;;;;;;;;;;4972203;28;20045;-80
2023/09/08 09:50:34;;;;;;;0.65;0.32;;;;;;;;;;4983588;28;20050;-82
2023/09/08 09:53:09;;;;;;;0.80;0.30;;;;;;;;;;4979799;28;20057;-82
2023/09/08 09:55:43;;;;;;;1.05;0.38;;;;;;;;;;4983126;28;20038;-84
2023/09/08 09:58:15;;;;;;;0.43;0.32;;;;;;;;;;4983634;28;20143;-82
2023/09/08 10:00:50;;;;;;;0.60;0.22;;;;;;;;;;4990017;28;20430;-82
2023/09/08 10:03:22;;;;;;;2.83;0.30;;;;;;;;;;4959380;28;20486;-82
2023/09/08 10:05:53;;;;;;;0.55;0.35;;;;;;;;;;4958099;28;20116;-82
2023/09/08 10:08:26;;;;;;;0.50;0.50;;;;;;;;;;4975690;28;20501;-82
2023/09/08 10:11:07;;;;;;;0.50;0.43;;;;;;;;;;4943097;28;20051;-81
2023/09/08 10:13:47;;;;;;;1.50;0.52;;;;;;;;;;4958250;28;20050;-82
2023/09/08 10:16:21;;;;;;;1.40;0.25;;;;;;;;;;4973746;28;20042;-82
2023/09/08 10:18:54;;;;;;;2.70;0.35;;;;;;;;;;4975514;28;20038;-84
2023/09/08 10:21:30;;;;;;;2.80;0.50;;;;;;;;;;4958681;28;20058;-80
2023/09/08 10:24:27;;;;;;;3.13;0.70;;;;;;;;;;4958907;28;20512;-83
2023/09/08 10:27:11;;;;;;;1.40;0.40;;;;;;;;;;4975573;28;20050;-81
2023/09/08 10:29:44;;;;;;;1.25;0.40;;;;;;;;;;4957703;28;20055;-83
2023/09/08 10:32:20;;;;;;;1.60;0.50;;;;;;;;;;4957484;28;20509;-83
2023/09/08 10:34:53;;;;;;;12.05;5.40;;;;;;;;;;4975196;28;20038;-81
2023/09/08 10:37:29;;;;;;;3.38;1.27;;;;;;;;;;4975020;28;20055;-81
2023/09/08 10:40:27;;;;;;;2.22;0.80;;;;;;;;;;4975280;28;20039;-79
2023/09/08 10:43:10;;;;;;;1.35;0.50;;;;;;;;;;4974822;28;20049;-80
2023/09/08 10:45:44;;;;;;;0.68;0.40;;;;;;;;;;4958071;28;20042;-81
2023/09/08 10:48:16;;;;;;;2.72;0.30;;;;;;;;;;4946006;29;20042;-83
2023/09/08 10:50:46;;;;;;;0.63;0.28;;;;;;;;;;4955607;28;20051;-82
2023/09/08 10:53:19;;;;;;;0.98;0.30;;;;;;;;;;4954677;28;20046;-82
2023/09/08 10:55:53;;;;;;;1.80;0.40;;;;;;;;;;4974494;28;20047;-84
2023/09/08 10:58:39;;;;;;;0.90;0.50;;;;;;;;;;4974569;28;20038;-81
2023/09/08 11:01:26;;;;;;;1.30;0.38;;;;;;;;;;4958057;28;20045;-83
2023/09/08 11:03:58;;;;;;;1.17;0.40;;;;;;;;;;4940515;28;20061;-81
2023/09/08 11:06:31;;;;;;;4.75;1.50;;;;;;;;;;4941074;28;20051;-80
2023/09/08 11:09:07;;;;;;;2.15;0.80;;;;;;;;;;4957746;28;20058;-81
2023/09/08 11:11:41;;;;;;;1.00;0.50;;;;;;;;;;4957092;28;20049;-81
2023/09/08 11:14:15;;;;;;;0.80;0.22;;;;;;;;;;4974332;28;20035;-81
2023/09/08 11:16:48;;;;;;;1.58;0.50;;;;;;;;;;4974080;28;20070;-80
2023/09/08 11:19:18;;;;;;;1.00;0.55;;;;;;;;;;4956191;28;20042;-81
2023/09/08 11:21:49;;;;;;;3.63;0.90;;;;;;;;;;4973391;28;20367;-84
2023/09/08 11:24:22;;;;;;;2.92;0.70;;;;;;;;;;4954090;28;20043;-81
2023/09/08 11:26:54;;;;;;;3.13;1.00;;;;;;;;;;4971480;28;20497;-81
2023/09/08 11:29:29;;;;;;;1.23;0.80;;;;;;;;;;4952908;28;20045;-82
2023/09/08 11:32:02;;;;;;;1.77;0.80;;;;;;;;;;4954290;28;20042;-80
2023/09/08 11:34:36;;;;;;;2.03;0.95;;;;;;;;;;4972200;28;20046;-81
2023/09/08 11:37:13;;;;;;;;;;;;;;;;;;4973977;28;20035;-81
2023/09/08 11:39:46;;;;;;;1.02;0.47;;;;;;;;;;4957609;28;19922;-80
2023/09/08 11:42:17;;;;;;;1.13;0.47;;;;;;;;;;4974077;28;20031;-80
2023/09/08 11:44:49;;;;;;;0.73;0.30;;;;;;;;;;4974294;28;20050;-80
2023/09/08 11:47:20;;;;;;;0.90;0.65;;;;;;;;;;4973731;28;20043;-81
2023/09/08 11:49:54;;;;;;;1.58;0.32;;;;;;;;;;4973721;28;20054;-79
2023/09/08 11:52:24;;;;;;;0.95;0.30;;;;;;;;;;4955721;28;20042;-81
2023/09/08 11:54:56;;;;;;;0.70;0.40;;;;;;;;;;4956457;28;20050;-80
2023/09/08 11:57:44;;;;;;;0.52;0.32;;;;;;;;;;4973224;28;20106;-80
2023/09/08 12:00:17;;;;;;;0.50;0.30;;;;;;;;;;4957089;28;20049;-79
2023/09/08 12:02:52;;;;;;;1.00;0.63;;;;;;;;;;4974170;28;20047;-81
2023/09/08 12:05:24;;;;;;;1.23;0.40;;;;;;;;;;4973450;28;20046;-80
2023/09/08 12:07:56;;;;;;;1.83;0.50;;;;;;;;;;4973816;28;20039;-81
2023/09/08 12:10:27;;;;;;;2.55;0.52;;;;;;;;;;4973240;28;20397;-83
2023/09/08 12:13:00;;;;;;;2.08;1.10;;;;;;;;;;4973023;28;20054;-80
2023/09/08 12:15:36;;;;;;;2.15;0.80;;;;;;;;;;4972598;28;20038;-80
2023/09/08 12:18:17;;;;;;;1.40;0.57;;;;;;;;;;4920850;29;20054;-82
2023/09/08 12:21:07;;;;;;;1.52;0.82;;;;;;;;;;4969519;28;20043;-80
2023/09/08 12:23:51;;;;;;;1.98;1.00;;;;;;;;;;4942071;28;20050;-80
2023/09/08 12:26:23;;;;;;;;;;;;;;;;;;4972578;28;20482;-80
2023/09/08 12:28:56;;;;;;;1.67;0.70;;;;;;;;;;4972898;28;19973;-81
2023/09/08 12:31:27;;;;;;;1.17;0.60;;;;;;;;;;4955337;28;20075;-80
2023/09/08 12:33:57;;;;;;;1.60;0.88;;;;;;;;;;4955223;28;20518;-82
2023/09/08 12:36:28;;;;;;;1.10;0.63;;;;;;;;;;4972633;28;20050;-81
2023/09/08 12:38:58;;;;;;;1.60;0.60;;;;;;;;;;4972791;28;20047;-82
2023/09/08 12:41:29;;;;;;;1.40;0.73;;;;;;;;;;4972535;28;20057;-81
2023/09/08 12:44:00;;;;;;;1.75;0.82;;;;;;;;;;4972818;28;20440;-81
2023/09/08 12:46:35;;;;;;;3.30;1.10;;;;;;;;;;4955044;28;20410;-81
2023/09/08 12:49:11;;;;;;;6.40;3.42;;;;;;;;;;4936150;29;20054;-80
2023/09/08 12:51:42;;;;;;;3.50;1.38;;;;;;;;;;4953702;29;20501;-80
2023/09/08 12:54:12;;;;;;;4.18;1.40;;;;;;;;;;4955745;28;20055;-81
2023/09/08 12:56:45;;;;;;;4.68;1.67;;;;;;;;;;4972449;28;20049;-83
2023/09/08 12:59:16;;;;;;;4.90;2.08;;;;;;;;;;4955796;28;20528;-81
2023/09/08 13:01:53;;;;;;;2.55;1.15;;;;;;;;;;4972572;28;20393;-82
2023/09/08 13:04:25;;;;;;;2.55;1.20;;;;;;;;;;4969473;28;20039;-80
2023/09/08 13:06:58;;;;;;;2.15;0.90;;;;;;;;;;4972691;28;20043;-82
2023/09/08 13:09:29;;;;;;;1.75;0.80;;;;;;;;;;4972138;28;20375;-81
2023/09/08 13:12:00;;;;;;;2.00;0.68;;;;;;;;;;4955410;28;20051;-81
2023/09/08 13:14:31;;;;;;;1.30;0.70;;;;;;;;;;4972552;28;20390;-82
2023/09/08 13:17:01;;;;;;;2.55;1.05;;;;;;;;;;4972498;28;20054;-80
2023/09/08 13:19:33;;;;;;;2.97;0.85;;;;;;;;;;4954390;28;20050;-81
2023/09/08 13:22:05;;;;;;;2.42;0.70;;;;;;;;;;4955034;28;20494;-82
2023/09/08 13:24:37;;;;;;;1.60;0.65;;;;;;;;;;4972276;28;20050;-80
2023/09/08 13:27:07;;;;;;;1.75;0.85;;;;;;;;;;4974590;28;20045;-81
2023/09/08 13:29:38;;;;;;;2.22;0.70;;;;;;;;;;4957334;28;20061;-81
2023/09/08 13:32:08;;;;;;;2.28;0.90;;;;;;;;;;4976267;28;20047;-80
2023/09/08 13:34:40;;;;;;;2.65;1.10;;;;;;;;;;4975001;28;20039;-80
2023/09/08 13:37:14;;;;;;;2.40;0.80;;;;;;;;;;4956680;29;20046;-80
2023/09/08 13:39:50;;;;;;;1.60;0.70;;;;;;;;;;4937060;29;20085;-83
2023/09/08 13:42:20;;;;;;;1.30;0.70;;;;;;;;;;4938152;29;20047;-82
2023/09/08 13:44:52;;;;;;;1.95;0.80;;;;;;;;;;4956145;29;20184;-81
2023/09/08 13:47:24;;;;;;;1.48;0.70;;;;;;;;;;4953088;29;20058;-81
2023/09/08 13:50:01;;;;;;;2.15;0.90;;;;;;;;;;4940754;29;20035;-83
2023/09/08 13:52:39;;;;;;;3.20;0.90;;;;;;;;;;4945313;28;20041;-80
2023/09/08 13:55:12;;;;;;;;;;;;;;;;;;4974874;28;20381;-81
2023/09/08 13:57:46;;;;;;;1.98;0.70;;;;;;;;;;4975554;28;20391;-80
2023/09/08 14:00:23;;;;;;;1.73;0.77;;;;;;;;;;4958368;28;20039;-80
2023/09/08 14:02:59;;;;;;;1.58;0.73;;;;;;;;;;4974873;28;20043;-80
2023/09/08 14:05:35;;;;;;;1.38;0.77;;;;;;;;;;4957184;28;20461;-79
2023/09/08 14:08:09;;;;;;;1.98;0.88;;;;;;;;;;4959337;28;20043;-79
2023/09/08 14:10:51;;;;;;;1.50;0.80;;;;;;;;;;4975152;28;20042;-80
2023/09/08 14:13:35;;;;;;;2.40;1.20;;;;;;;;;;4975294;28;20034;-80
2023/09/08 14:16:09;;;;;;;2.22;1.20;;;;;;;;;;4974724;28;20043;-80
2023/09/08 14:18:40;;;;;;;2.00;1.02;;;;;;;;;;4963750;28;20041;-81
2023/09/08 14:21:14;;;;;;;2.58;1.30;;;;;;;;;;4957719;28;20043;-80
2023/09/08 14:23:44;;;;;;;2.53;1.30;;;;;;;;;;4957464;28;20494;-80
2023/09/08 14:26:15;;;;;;;2.88;1.33;;;;;;;;;;4974938;28;20046;-80
2023/09/08 14:28:44;;;;;;;2.70;1.08;;;;;;;;;;4957960;28;20047;-80
2023/09/08 14:31:15;;;;;;;2.95;1.83;;;;;;;;;;4975230;28;20532;-79
2023/09/08 14:33:46;;;;;;;3.53;1.40;;;;;;;;;;4975115;28;20393;-80
2023/09/08 14:36:18;;;;;;;3.38;1.27;;;;;;;;;;4974755;28;20043;-81
2023/09/08 14:38:49;;;;;;;2.88;1.15;;;;;;;;;;4973667;28;20054;-80
2023/09/08 14:41:23;;;;;;;3.22;1.38;;;;;;;;;;4974829;28;20113;-81
2023/09/08 14:43:54;;;;;;;3.38;1.40;;;;;;;;;;4974629;28;20481;-81
2023/09/08 14:46:27;;;;;;;2.42;1.13;;;;;;;;;;4974684;28;20385;-80
2023/09/08 14:49:00;;;;;;;2.05;1.20;;;;;;;;;;4974685;28;20035;-81
2023/09/08 14:51:30;;;;;;;3.17;1.38;;;;;;;;;;4974186;28;20039;-80
2023/09/08 14:54:03;;;;;;;2.58;1.20;;;;;;;;;;4974856;28;20039;-80
2023/09/08 14:56:34;;;;;;;3.17;1.40;;;;;;;;;;4958215;28;20047;-81
2023/09/08 14:59:09;;;;;;;4.13;1.60;;;;;;;;;;4972003;28;20055;-81
2023/09/08 15:01:42;;;;;;;3.75;1.70;;;;;;;;;;4956277;28;20406;-80
2023/09/08 15:04:17;;;;;;;3.47;1.42;;;;;;;;;;4973881;28;20042;-81
2023/09/08 15:06:49;;;;;;;3.63;1.20;;;;;;;;;;4956242;28;20149;-80
2023/09/08 15:09:22;;;;;;;3.00;1.05;;;;;;;;;;4973744;28;20053;-81
2023/09/08 15:11:53;;;;;;;3.47;1.73;;;;;;;;;;4973767;28;20046;-80
2023/09/08 15:14:24;;;;;;;3.30;1.13;;;;;;;;;;4973458;28;20054;-82
2023/09/08 15:16:55;;;;;;;3.08;1.33;;;;;;;;;;4973939;28;20050;-80
2023/09/08 15:19:26;;;;;;;2.03;1.13;;;;;;;;;;4974154;28;20472;-81
2023/09/08 15:21:56;;;;;;;2.17;1.20;;;;;;;;;;4974574;28;20043;-81
2023/09/08 15:24:30;;;;;;;3.20;1.20;;;;;;;;;;4950924;29;20044;-80
2023/09/08 15:27:04;;;;;;;2.50;1.00;;;;;;;;;;4957944;28;20068;-82